Time;durP1;ratioP1;P1;durP2;ratioP2;P2;SDS_P1;SDS_P2;PMS_P1;PMS_P2;Temp;Humidity;BMP_temperature;BMP_pressure;BME280_temperature;BME280_humidity;BME280_pressure;Samples;Min_cycle;Max_cycle;Signal;HPM_P1;HPM_P2
2023/06/24 12:03:53;;;;;;;;;0.00;0.00;;;;;37.22;20.02;101973.44;5107817;27;49304;-50
2023/06/24 12:06:18;;;;;;;;;0.00;0.00;;;;;37.24;19.97;101971.31;5091737;27;45536;-48
2023/06/24 12:08:43;;;;;;;;;0.00;0.00;;;;;37.07;20.05;101965.50;5114332;27;58067;-49
2023/06/24 12:11:09;;;;;;;;;0.00;0.00;;;;;36.63;21.30;101979.22;5109245;27;45493;-49
2023/06/24 12:13:34;;;;;;;;;0.00;0.00;;;;;36.20;21.59;101971.56;5095751;27;59416;-51
2023/06/24 12:15:59;;;;;;;;;0.00;0.00;;;;;35.76;21.75;101972.13;5093664;27;68015;-50
2023/06/24 12:18:25;;;;;;;;;3.00;3.00;;;;;35.49;22.41;101971.34;5089949;27;65096;-52
2023/06/24 12:20:50;;;;;;;;;0.00;0.00;;;;;35.13;23.04;101961.56;5098824;27;52710;-48
2023/06/24 12:23:16;;;;;;;;;0.00;0.00;;;;;34.83;24.35;101952.81;5101385;27;45820;-49
2023/06/24 12:25:41;;;;;;;;;2.25;2.25;;;;;34.40;23.58;101951.25;5101377;27;45489;-56
2023/06/24 12:28:06;;;;;;;;;0.00;0.00;;;;;33.94;24.67;101947.25;5110695;27;45386;-55
2023/06/24 12:30:32;;;;;;;;;0.00;0.00;;;;;33.59;24.66;101945.31;5099575;27;46765;-55
2023/06/24 12:32:57;;;;;;;;;0.00;0.00;;;;;33.20;24.90;101937.59;5089871;27;62483;-56
2023/06/24 12:35:25;;;;;;;;;0.00;0.00;;;;;32.81;26.35;101931.56;5098502;27;45535;-55
2023/06/24 12:37:50;;;;;;;;;0.00;0.00;;;;;32.51;24.86;101925.31;5100413;27;45888;-54
2023/06/24 12:40:16;;;;;;;;;0.00;0.00;;;;;32.28;25.93;101935.44;5090328;27;45476;-53
2023/06/24 12:42:41;;;;;;;;;0.00;0.00;;;;;31.93;26.62;101931.56;5104139;27;47196;-52
2023/06/24 12:45:07;;;;;;;;;0.00;0.00;;;;;31.66;26.36;101937.56;5098106;27;48272;-51
2023/06/24 12:47:33;;;;;;;;;0.00;0.00;;;;;31.61;26.96;101931.78;5092637;27;45397;-54
2023/06/24 12:49:58;;;;;;;;;0.00;0.00;;;;;31.68;28.74;101929.16;5100625;27;45720;-54
2023/06/24 12:52:23;;;;;;;;;0.00;0.00;;;;;31.53;27.06;101926.38;5114080;27;64943;-54
2023/06/24 12:54:49;;;;;;;;;0.00;0.00;;;;;31.51;27.70;101925.69;5090880;27;45465;-52
2023/06/24 12:57:15;;;;;;;;;0.00;0.00;;;;;31.39;28.29;101927.22;5079913;27;45797;-54
2023/06/24 12:59:41;;;;;;;;;0.00;0.00;;;;;31.22;29.30;101923.78;5082849;27;45745;-54
2023/06/24 13:02:06;;;;;;;;;0.00;0.00;;;;;31.01;28.49;101926.16;5089780;27;46501;-53
2023/06/24 13:04:31;;;;;;;;;0.00;0.00;;;;;30.87;28.26;101910.50;5092679;27;45579;-53
2023/06/24 13:06:56;;;;;;;;;0.00;0.00;;;;;30.81;28.85;101911.25;5091281;27;57896;-52
2023/06/24 13:09:22;;;;;;;;;0.00;0.00;;;;;30.65;28.48;101909.47;5103437;27;55998;-57
2023/06/24 13:11:48;;;;;;;;;0.00;0.00;;;;;30.63;29.19;101912.41;5094935;27;65572;-54
2023/06/24 13:14:14;;;;;;;;;0.00;0.00;;;;;30.57;28.76;101904.91;5081324;27;45488;-53
2023/06/24 13:16:40;;;;;;;;;0.00;0.00;;;;;30.58;28.57;101903.03;5075885;27;46740;-53
2023/06/24 13:19:05;;;;;;;;;0.00;0.00;;;;;30.51;29.09;101901.00;5075496;27;45535;-53
2023/06/24 13:21:30;;;;;;;;;0.00;0.00;;;;;30.44;28.48;101890.91;5080168;27;46210;-53
2023/06/24 13:23:56;;;;;;;;;0.00;0.00;;;;;30.38;29.59;101888.88;5074740;27;45408;-53
2023/06/24 13:26:21;;;;;;;;;0.00;0.00;;;;;30.32;28.85;101893.22;5079015;27;61898;-53
2023/06/24 13:28:48;;;;;;;;;0.00;0.00;;;;;30.28;29.26;101889.13;5080249;27;45417;-50
2023/06/24 13:31:14;;;;;;;;;0.00;0.00;;;;;30.22;28.52;101884.38;5079115;27;46150;-53
2023/06/24 13:33:39;;;;;;;;;0.00;0.00;;;;;30.32;28.88;101885.84;5074612;27;63917;-53
2023/06/24 13:36:07;;;;;;;;;0.00;0.00;;;;;30.51;28.27;101886.44;5074282;27;45665;-52
2023/06/24 13:38:32;;;;;;;;;0.00;0.00;;;;;30.67;27.99;101886.28;5078853;27;45307;-52
2023/06/24 13:40:57;;;;;;;;;0.00;0.00;;;;;30.77;29.03;101883.31;5074067;27;46385;-51
2023/06/24 13:43:23;;;;;;;;;0.00;0.00;;;;;30.77;29.20;101888.81;5074397;27;62060;-48
2023/06/24 13:45:48;;;;;;;;;0.00;0.00;;;;;30.75;29.06;101885.38;5079259;27;47956;-52
2023/06/24 13:48:14;;;;;;;;;0.00;0.00;;;;;30.73;29.98;101878.34;5069211;27;62259;-51
2023/06/24 13:50:39;;;;;;;;;0.00;0.00;;;;;30.61;28.95;101876.06;5068216;27;46008;-50
2023/06/24 13:53:04;;;;;;;;;0.00;0.00;;;;;30.54;29.52;101863.28;5088790;27;45545;-51
2023/06/24 13:55:31;;;;;;;;;0.00;0.00;;;;;30.49;29.81;101872.03;5076650;27;45565;-57
2023/06/24 13:57:56;;;;;;;;;0.00;0.00;;;;;30.36;30.17;101865.25;5079276;27;45914;-54
2023/06/24 14:00:22;;;;;;;;;0.00;0.00;;;;;30.25;29.87;101864.81;5077211;27;47993;-52
2023/06/24 14:02:47;;;;;;;;;0.00;0.00;;;;;30.21;30.73;101864.31;5074890;27;45829;-56
2023/06/24 14:05:12;;;;;;;;;0.00;0.00;;;;;30.14;29.94;101855.97;5081369;27;45504;-50
2023/06/24 14:07:38;;;;;;;;;0.00;0.00;;;;;30.17;30.79;101849.28;5079967;27;45601;-53
2023/06/24 14:10:04;;;;;;;;;0.00;0.00;;;;;30.23;30.02;101842.19;5095070;27;65112;-59
2023/06/24 14:12:29;;;;;;;;;0.00;0.00;;;;;30.38;29.89;101839.50;5088899;27;45721;-59
2023/06/24 14:14:55;;;;;;;;;0.00;0.00;;;;;30.45;30.03;101843.22;5078979;27;45495;-59
2023/06/24 14:17:21;;;;;;;;;0.00;0.00;;;;;30.47;29.75;101838.44;5074576;27;45489;-60
2023/06/24 14:19:46;;;;;;;;;0.00;0.00;;;;;30.64;29.99;101828.19;5089769;27;46244;-60
2023/06/24 14:22:12;;;;;;;;;0.00;0.00;;;;;30.78;29.47;101840.22;5089403;27;57021;-60
2023/06/24 14:24:37;;;;;;;;;0.00;0.00;;;;;30.81;30.07;101835.22;5081913;27;45396;-60
2023/06/24 14:27:05;;;;;;;;;0.00;0.00;;;;;30.98;29.77;101827.66;5069066;27;45628;-60
2023/06/24 14:29:30;;;;;;;;;0.00;0.00;;;;;31.19;29.30;101820.63;5080551;27;45546;-60
2023/06/24 14:31:56;;;;;;;;;0.00;0.00;;;;;31.37;29.14;101817.50;5062443;28;67799;-60
2023/06/24 14:34:21;;;;;;;;;0.00;0.00;;;;;31.42;29.44;101814.16;5079898;27;45407;-61
2023/06/24 14:36:46;;;;;;;;;0.00;0.00;;;;;31.35;29.18;101811.31;5076064;27;46166;-60
2023/06/24 14:39:15;;;;;;;;;0.00;0.00;;;;;31.27;29.20;101805.94;5075440;27;47055;-60
2023/06/24 14:41:40;;;;;;;;;0.00;0.00;;;;;31.25;29.31;101803.38;5081500;27;45378;-60
2023/06/24 14:44:05;;;;;;;;;0.00;0.00;;;;;31.16;29.80;101801.78;5089144;27;45876;-60
2023/06/24 14:46:31;;;;;;;;;0.00;0.00;;;;;31.06;29.68;101804.78;5071502;27;64190;-61
2023/06/24 14:48:56;;;;;;;;;0.00;0.00;;;;;30.97;29.84;101803.97;5075031;27;45476;-61
2023/06/24 14:51:22;;;;;;;;;0.00;0.00;;;;;30.92;29.89;101798.19;5079055;27;61875;-61
2023/06/24 14:53:47;;;;;;;;;0.00;0.00;;;;;31.01;29.77;101788.00;5072234;27;45355;-61
2023/06/24 14:56:12;;;;;;;;;0.00;0.00;;;;;31.06;29.78;101791.06;5085203;27;45528;-61
2023/06/24 14:58:38;;;;;;;;;0.00;0.00;;;;;30.98;30.09;101789.22;5084820;27;69938;-61
2023/06/24 15:01:03;;;;;;;;;4.00;4.00;;;;;30.88;29.25;101790.53;5076333;27;67957;-61
2023/06/24 15:03:28;;;;;;;;;0.00;0.00;;;;;30.83;30.25;101780.97;5084057;27;45834;-62
2023/06/24 15:05:54;;;;;;;;;0.00;0.00;;;;;30.81;30.27;101779.47;5087786;27;69044;-61
2023/06/24 15:08:20;;;;;;;;;0.00;0.00;;;;;30.71;30.37;101778.88;5088351;27;45670;-60
2023/06/24 15:10:45;;;;;;;;;0.00;0.00;;;;;30.71;30.59;101778.88;5073026;27;45602;-60
2023/06/24 15:13:11;;;;;;;;;0.00;0.00;;;;;30.60;31.07;101772.81;5086475;27;45337;-60
2023/06/24 15:15:36;;;;;;;;;0.00;0.00;;;;;30.52;31.17;101781.13;5076502;27;61742;-60
2023/06/24 15:18:01;;;;;;;;;0.00;0.00;;;;;30.50;30.62;101775.78;5077198;27;56105;-61
2023/06/24 15:20:27;;;;;;;;;0.00;0.00;;;;;30.51;30.73;101777.50;5111661;27;45408;-66
2023/06/24 15:22:52;;;;;;;;;0.00;0.00;;;;;30.58;30.39;101776.78;5080139;27;46082;-60
2023/06/24 15:25:17;;;;;;;;;0.00;0.00;;;;;30.66;30.67;101768.44;5078985;27;54848;-68
2023/06/24 15:27:43;;;;;;;;;0.00;0.00;;;;;30.66;30.48;101771.19;5079969;27;62020;-62
2023/06/24 15:30:09;;;;;;;;;0.00;0.00;;;;;30.65;30.37;101772.22;5081137;27;45495;-61
2023/06/24 15:32:34;;;;;;;;;0.00;0.00;;;;;30.67;30.61;101762.78;5105399;27;45431;-65
2023/06/24 15:35:04;;;;;;;;;0.00;0.00;;;;;30.69;30.93;101759.84;5080054;27;45400;-66
2023/06/24 15:37:29;;;;;;;;;0.00;0.00;;;;;30.67;30.20;101759.19;5094488;27;47362;-65
2023/06/24 15:39:55;;;;;;;;;0.00;0.00;;;;;30.67;30.67;101761.94;5087343;27;45369;-66
2023/06/24 15:42:20;;;;;;;;;0.00;0.00;;;;;30.57;30.27;101759.44;5076012;27;64414;-66
2023/06/24 15:44:45;;;;;;;;;0.00;0.00;;;;;30.49;30.49;101754.91;5063670;27;45533;-66
2023/06/24 15:47:11;;;;;;;;;0.00;0.00;;;;;30.43;30.75;101752.88;5076685;27;67029;-64
2023/06/24 15:49:36;;;;;;;;;0.00;0.00;;;;;30.46;30.46;101751.66;5074152;27;45336;-57
2023/06/24 15:52:02;;;;;;;;;0.00;0.00;;;;;30.64;30.76;101741.19;5062427;27;54693;-57
2023/06/24 15:54:27;;;;;;;;;0.00;0.00;;;;;30.81;30.20;101738.28;5079294;27;45466;-56
2023/06/24 15:56:52;;;;;;;;;0.00;0.00;;;;;30.96;30.27;101730.91;5073399;27;68080;-56
2023/06/24 15:59:18;;;;;;;;;0.00;0.00;;;;;31.03;30.16;101728.25;5069087;27;45697;-57
2023/06/24 16:01:43;;;;;;;;;0.00;0.00;;;;;31.02;30.07;101726.53;5081974;27;45940;-57
2023/06/24 16:04:09;;;;;;;;;0.00;0.00;;;;;31.04;30.71;101720.84;5080930;27;45317;-57
2023/06/24 16:06:37;;;;;;;;;0.00;0.00;;;;;31.08;29.55;101720.31;5111176;27;46732;-56
2023/06/24 16:09:02;;;;;;;;;0.00;0.00;;;;;31.10;29.73;101715.47;5077448;27;45381;-56
2023/06/24 16:11:28;;;;;;;;;1.00;1.00;;;;;31.12;29.62;101712.53;5114013;27;45662;-54
2023/06/24 16:13:53;;;;;;;;;0.00;0.00;;;;;30.95;29.89;101718.22;5091206;27;70545;-54
2023/06/24 16:16:18;;;;;;;;;0.00;0.00;;;;;30.80;29.90;101709.13;5085180;27;68849;-59
2023/06/24 16:18:43;;;;;;;;;0.00;0.00;;;;;30.78;29.52;101706.56;5087264;27;49690;-57
2023/06/24 16:21:09;;;;;;;;;0.00;0.00;;;;;30.76;30.16;101697.66;5078403;27;62991;-56
2023/06/24 16:23:34;;;;;;;;;0.00;0.00;;;;;30.63;29.69;101701.06;5094741;27;45490;-55
2023/06/24 16:26:00;;;;;;;;;0.00;0.00;;;;;30.53;29.98;101695.00;5079224;27;46273;-56
2023/06/24 16:28:26;;;;;;;;;0.00;0.00;;;;;30.49;29.47;101694.53;5077933;27;45507;-56
2023/06/24 16:30:51;;;;;;;;;0.75;0.75;;;;;30.45;29.83;101700.53;5093697;27;46058;-56
2023/06/24 16:33:17;;;;;;;;;0.00;0.00;;;;;30.50;29.47;101700.88;5077132;27;45534;-57
2023/06/24 16:35:42;;;;;;;;;0.00;0.00;;;;;30.57;29.51;101706.44;5079398;27;46262;-59
2023/06/24 16:38:07;;;;;;;;;0.00;0.00;;;;;30.56;29.59;101700.13;5084944;27;45411;-59
2023/06/24 16:40:33;;;;;;;;;0.00;0.00;;;;;30.61;29.49;101697.66;5082396;27;51535;-58
2023/06/24 16:42:58;;;;;;;;;0.00;0.00;;;;;30.57;30.11;101698.22;5083056;27;45417;-57
2023/06/24 16:45:23;;;;;;;;;0.00;0.00;;;;;30.50;30.07;101690.72;5073997;27;71891;-55
2023/06/24 16:47:49;;;;;;;;;0.00;0.00;;;;;30.45;29.86;101693.16;5085902;27;49794;-67
2023/06/24 16:50:14;;;;;;;;;0.00;0.00;;;;;30.50;29.34;101693.47;5086061;27;45701;-67
2023/06/24 16:52:39;;;;;;;;;0.00;0.00;;;;;30.53;29.80;101692.25;5084616;27;55730;-66
2023/06/24 16:55:05;;;;;;;;;0.00;0.00;;;;;30.61;29.74;101694.91;5088564;27;46913;-67
2023/06/24 16:57:30;;;;;;;;;0.00;0.00;;;;;30.62;29.67;101693.84;5089753;27;48788;-67
2023/06/24 16:59:55;;;;;;;;;0.00;0.00;;;;;30.69;29.74;101692.06;5082055;27;51747;-66
2023/06/24 17:02:21;;;;;;;;;0.00;0.00;;;;;30.68;29.02;101682.13;5080118;27;50811;-61
2023/06/24 17:04:46;;;;;;;;;0.00;0.00;;;;;30.67;29.93;101687.81;5077604;27;57967;-61
2023/06/24 17:07:11;;;;;;;;;0.00;0.00;;;;;30.73;29.97;101680.72;5100130;27;45371;-65
2023/06/24 17:09:37;;;;;;;;;0.00;0.00;;;;;30.79;29.96;101686.28;5081832;27;45358;-67
2023/06/24 17:12:03;;;;;;;;;0.00;0.00;;;;;30.79;29.75;101688.19;5080920;27;45335;-53
2023/06/24 17:14:28;;;;;;;;;0.00;0.00;;;;;30.72;29.66;101690.84;5084444;27;46594;-54
2023/06/24 17:16:54;;;;;;;;;0.00;0.00;;;;;30.67;29.81;101674.09;5078927;27;45145;-53
2023/06/24 17:19:19;;;;;;;;;0.00;0.00;;;;;30.67;29.21;101685.06;5078466;28;45600;-53
2023/06/24 17:21:44;;;;;;;;;0.00;0.00;;;;;30.62;29.52;101682.88;5072881;27;46598;-54
2023/06/24 17:24:10;;;;;;;;;0.00;0.00;;;;;30.64;29.60;101679.97;5069215;27;60112;-53
2023/06/24 17:26:35;;;;;;;;;0.00;0.00;;;;;30.56;29.29;101669.06;5079802;27;45554;-54
2023/06/24 17:29:01;;;;;;;;;0.00;0.00;;;;;30.47;29.13;101668.31;5088496;27;56240;-54
2023/06/24 17:31:26;;;;;;;;;0.00;0.00;;;;;30.46;29.23;101674.81;5086384;27;45475;-55
2023/06/24 17:33:51;;;;;;;;;0.00;0.00;;;;;30.47;29.66;101673.81;5076828;27;66478;-57
2023/06/24 17:36:16;;;;;;;;;0.00;0.00;;;;;30.41;29.39;101671.78;5079261;27;65582;-58
2023/06/24 17:38:42;;;;;;;;;0.00;0.00;;;;;30.35;28.70;101665.13;5074110;28;65082;-59
2023/06/24 17:41:08;;;;;;;;;0.00;0.00;;;;;30.31;28.70;101669.28;5083303;27;54167;-58
2023/06/24 17:43:33;;;;;;;;;0.00;0.00;;;;;30.34;28.83;101668.94;5108323;27;46005;-58
2023/06/24 17:45:58;;;;;;;;;0.00;0.00;;;;;30.37;29.02;101665.81;5078402;27;64489;-57
2023/06/24 17:48:24;;;;;;;;;0.00;0.00;;;;;30.36;28.79;101675.06;5091226;27;45712;-55
2023/06/24 17:50:49;;;;;;;;;0.00;0.00;;;;;30.31;27.72;101663.81;5095789;27;45448;-54
2023/06/24 17:53:14;;;;;;;;;0.00;0.00;;;;;30.33;28.88;101662.56;5076910;27;60143;-55
2023/06/24 17:55:40;;;;;;;;;0.00;0.00;;;;;30.26;28.49;101660.75;5094481;27;45549;-55
2023/06/24 17:58:05;;;;;;;;;0.00;0.00;;;;;30.22;28.45;101659.44;5079041;28;45695;-53
2023/06/24 18:00:36;;;;;;;;;0.00;0.00;;;;;30.16;28.66;101653.66;5104575;27;45777;-54
2023/06/24 18:03:01;;;;;;;;;0.00;0.00;;;;;30.09;29.14;101657.31;5073582;27;46210;-55
2023/06/24 18:05:26;;;;;;;;;0.00;0.00;;;;;30.07;29.07;101663.00;5096586;27;45431;-56
2023/06/24 18:07:52;;;;;;;;;0.00;0.00;;;;;30.03;28.87;101654.28;5073403;27;65801;-56
2023/06/24 18:10:17;;;;;;;;;0.00;0.00;;;;;29.96;28.91;101667.06;5076152;27;45840;-55
2023/06/24 18:12:44;;;;;;;;;3.00;3.00;;;;;29.95;29.30;101661.75;5079973;27;46285;-54
2023/06/24 18:15:10;;;;;;;;;0.00;0.00;;;;;29.89;29.11;101659.75;5071459;27;45511;-53
2023/06/24 18:17:35;;;;;;;;;0.00;0.00;;;;;29.87;29.10;101657.19;5079545;27;45978;-56
2023/06/24 18:20:00;;;;;;;;;0.00;0.00;;;;;29.92;29.77;101653.88;5084635;27;45578;-55
2023/06/24 18:22:26;;;;;;;;;0.00;0.00;;;;;29.99;29.47;101660.34;5083394;27;45619;-59
2023/06/24 18:24:53;;;;;;;;;0.00;0.00;;;;;30.04;30.03;101652.41;5074896;27;56321;-55
2023/06/24 18:27:18;;;;;;;;;0.75;0.75;;;;;30.01;29.85;101652.78;5100916;27;47095;-57
2023/06/24 18:29:43;;;;;;;;;0.00;0.00;;;;;29.97;30.56;101645.97;5067123;28;45501;-55
2023/06/24 18:32:09;;;;;;;;;0.00;0.00;;;;;29.89;30.14;101649.63;5076095;28;61989;-54
2023/06/24 18:34:35;;;;;;;;;0.00;0.00;;;;;29.83;30.16;101645.69;5079629;27;45734;-53
2023/06/24 18:37:00;;;;;;;;;0.00;0.00;;;;;29.77;30.36;101651.91;5075360;28;45417;-54
2023/06/24 18:39:26;;;;;;;;;0.00;0.00;;;;;29.70;30.61;101651.81;5076471;27;65358;-56
2023/06/24 18:41:51;;;;;;;;;0.00;0.00;;;;;29.62;31.18;101651.00;5093073;27;47244;-55
2023/06/24 18:44:17;;;;;;;;;0.00;0.00;;;;;29.58;31.61;101644.19;5093799;27;46202;-54
2023/06/24 18:46:43;;;;;;;;;0.00;0.00;;;;;29.55;31.50;101642.66;5084433;27;45787;-54
2023/06/24 18:49:08;;;;;;;;;0.00;0.00;;;;;29.50;31.91;101645.09;5085542;27;45480;-51
2023/06/24 18:51:33;;;;;;;;;0.00;0.00;;;;;29.45;31.60;101634.69;5094849;27;46909;-53
2023/06/24 18:53:59;;;;;;;;;0.00;0.00;;;;;29.43;32.32;101644.97;5080158;27;55085;-54
2023/06/24 18:56:24;;;;;;;;;0.00;0.00;;;;;29.38;32.36;101644.66;5083914;27;45461;-53
2023/06/24 18:58:49;;;;;;;;;0.00;0.00;;;;;29.34;33.48;101638.69;5080916;27;55787;-54
2023/06/24 19:01:15;;;;;;;;;0.00;0.00;;;;;29.34;32.86;101638.69;5082467;27;46198;-54
2023/06/24 19:03:41;;;;;;;;;0.00;0.00;;;;;29.32;32.94;101639.91;5080830;27;70055;-54
2023/06/24 19:06:06;;;;;;;;;0.00;0.00;;;;;29.24;32.90;101632.56;5081068;27;45449;-53
2023/06/24 19:08:32;;;;;;;;;0.00;0.00;;;;;29.17;33.41;101635.16;5094793;27;45713;-53
2023/06/24 19:10:57;;;;;;;;;0.00;0.00;;;;;29.15;33.96;101637.25;5087820;27;45759;-54
2023/06/24 19:13:23;;;;;;;;;0.00;0.00;;;;;29.11;33.37;101626.81;5086067;27;68356;-55
2023/06/24 19:15:48;;;;;;;;;0.00;0.00;;;;;29.05;34.07;101640.19;5088126;27;45514;-62
2023/06/24 19:18:13;;;;;;;;;0.00;0.00;;;;;29.02;33.97;101628.75;5084134;27;45823;-62
2023/06/24 19:20:39;;;;;;;;;0.00;0.00;;;;;28.98;33.96;101633.75;5088491;27;45979;-61
2023/06/24 19:23:04;;;;;;;;;0.00;0.00;;;;;28.94;34.31;101631.53;5075901;27;45597;-62
2023/06/24 19:25:30;;;;;;;;;0.00;0.00;;;;;28.88;34.28;101628.47;5091446;27;45907;-62
2023/06/24 19:27:55;;;;;;;;;0.00;0.00;;;;;28.81;34.96;101624.75;5088334;27;58064;-62
2023/06/24 19:30:20;;;;;;;;;0.00;0.00;;;;;28.75;34.86;101636.41;5078875;27;46321;-62
2023/06/24 19:32:46;;;;;;;;;0.00;0.00;;;;;28.68;35.63;101628.06;5079074;27;65126;-61
2023/06/24 19:35:11;;;;;;;;;0.00;0.00;;;;;28.62;35.37;101633.34;5082493;27;45381;-61
2023/06/24 19:37:37;;;;;;;;;10.00;10.00;;;;;28.51;34.71;101627.22;5086035;27;45331;-62
2023/06/24 19:40:03;;;;;;;;;0.00;0.00;;;;;28.46;35.34;101620.56;5074756;27;45607;-61
2023/06/24 19:42:29;;;;;;;;;0.00;0.00;;;;;28.38;35.81;101633.25;5086663;27;45764;-55
2023/06/24 19:44:54;;;;;;;;;0.00;0.00;;;;;28.31;36.58;101637.69;5071894;27;66161;-61
2023/06/24 19:47:19;;;;;;;;;0.00;0.00;;;;;28.22;36.23;101628.66;5099697;27;65135;-62
2023/06/24 19:49:49;;;;;;;;;0.00;0.00;;;;;28.15;36.34;101630.38;5089985;27;63385;-61
2023/06/24 19:52:15;;;;;;;;;0.00;0.00;;;;;28.11;36.50;101629.00;5081667;27;45629;-62
2023/06/24 19:54:40;;;;;;;;;0.00;0.00;;;;;28.09;36.56;101638.41;5084565;27;58745;-56
2023/06/24 19:57:05;;;;;;;;;0.00;0.00;;;;;28.06;36.48;101640.44;5087605;27;64959;-55
2023/06/24 19:59:30;;;;;;;;;0.00;0.00;;;;;28.03;36.41;101637.19;5071515;27;67756;-59
2023/06/24 20:01:56;;;;;;;;;0.00;0.00;;;;;27.99;37.01;101638.53;5075196;27;58519;-65
2023/06/24 20:04:21;;;;;;;;;0.00;0.00;;;;;27.95;36.66;101640.78;5078201;27;56895;-65
2023/06/24 20:06:47;;;;;;;;;0.00;0.00;;;;;27.92;36.47;101635.66;5088826;27;62668;-57
2023/06/24 20:09:12;;;;;;;;;0.00;0.00;;;;;27.90;36.81;101635.81;5077412;27;47432;-57
2023/06/24 20:11:37;;;;;;;;;0.00;0.00;;;;;27.89;36.64;101634.09;5074987;27;45959;-57
2023/06/24 20:14:02;;;;;;;;;0.00;0.00;;;;;27.86;37.07;101642.66;5080877;27;66547;-58
2023/06/24 20:16:28;;;;;;;;;0.00;0.00;;;;;27.85;37.27;101646.41;5075597;27;63009;-58
2023/06/24 20:18:53;;;;;;;;;0.00;0.00;;;;;27.82;37.75;101643.16;5069818;27;69064;-59
2023/06/24 20:21:18;;;;;;;;;0.00;0.00;;;;;27.78;37.18;101634.44;5085576;27;68005;-58
2023/06/24 20:23:44;;;;;;;;;0.00;0.00;;;;;27.76;37.68;101639.25;5078837;27;63011;-57
2023/06/24 20:26:09;;;;;;;;;0.00;0.00;;;;;27.73;37.81;101639.59;5080017;27;45331;-58
2023/06/24 20:28:34;;;;;;;;;0.00;0.00;;;;;27.71;37.67;101638.91;5087876;27;46158;-57
2023/06/24 20:31:02;;;;;;;;;0.00;0.00;;;;;27.70;37.70;101632.59;5077265;27;45466;-58
2023/06/24 20:33:29;;;;;;;;;1.00;1.00;;;;;27.68;37.70;101629.16;5078261;27;46172;-57
2023/06/24 20:35:54;;;;;;;;;0.00;0.00;;;;;27.66;37.85;101628.47;5076385;27;45629;-57
2023/06/24 20:38:19;;;;;;;;;0.00;0.00;;;;;27.62;37.98;101635.28;5078397;27;45758;-65
2023/06/24 20:40:45;;;;;;;;;0.00;0.00;;;;;27.55;38.09;101632.38;5087199;27;45320;-64
2023/06/24 20:43:10;;;;;;;;;0.00;0.00;;;;;27.51;38.39;101636.47;5081019;27;45660;-63
2023/06/24 20:45:35;;;;;;;;;0.00;0.00;;;;;27.49;38.65;101637.69;5065359;27;46743;-62
2023/06/24 20:48:01;;;;;;;;;0.00;0.00;;;;;27.48;38.72;101644.16;5082170;27;72713;-62
2023/06/24 20:50:26;;;;;;;;;0.00;0.00;;;;;27.46;38.84;101638.88;5078455;27;45487;-62
2023/06/24 20:52:52;;;;;;;;;0.00;0.00;;;;;27.45;38.93;101642.63;5086182;27;51212;-68
2023/06/24 20:55:18;;;;;;;;;0.00;0.00;;;;;27.44;38.61;101640.91;5095381;27;45809;-58
2023/06/24 20:57:43;;;;;;;;;0.00;0.00;;;;;27.39;39.25;101646.88;5108422;27;47374;-56
2023/06/24 21:00:09;;;;;;;;;0.00;0.00;;;;;27.37;39.04;101637.97;5080279;27;47098;-56
2023/06/24 21:02:34;;;;;;;;;0.00;0.00;;;;;27.35;38.92;101640.03;5085287;27;46471;-56
2023/06/24 21:05:00;;;;;;;;;0.00;0.00;;;;;27.33;38.87;101641.22;5082256;27;45553;-57
2023/06/24 21:07:25;;;;;;;;;3.00;0.00;;;;;27.30;39.60;101641.53;5078629;27;46066;-58
2023/06/24 21:09:51;;;;;;;;;0.00;0.00;;;;;27.28;39.68;101646.31;5079990;27;69239;-58
2023/06/24 21:12:16;;;;;;;;;0.00;0.00;;;;;27.23;39.85;101636.75;5077835;27;60745;-58
2023/06/24 21:14:41;;;;;;;;;0.00;0.00;;;;;27.20;39.66;101634.34;5080370;28;69169;-58
2023/06/24 21:17:07;;;;;;;;;0.00;0.00;;;;;27.17;40.25;101633.81;5088833;27;70910;-58
2023/06/24 21:19:32;;;;;;;;;0.00;0.00;;;;;27.11;40.22;101629.03;5082283;27;58625;-70
2023/06/24 21:21:57;;;;;;;;;0.00;0.00;;;;;27.08;39.77;101624.75;5088035;27;46417;-70
2023/06/24 21:24:23;;;;;;;;;0.00;0.00;;;;;27.08;40.81;101632.94;5079502;27;64278;-71
2023/06/24 21:26:48;;;;;;;;;0.00;0.00;;;;;27.07;39.92;101625.78;5076508;27;45484;-71
2023/06/24 21:29:13;;;;;;;;;0.00;0.00;;;;;27.07;40.41;101636.69;5079403;27;60119;-58
2023/06/24 21:31:38;;;;;;;;;0.00;0.00;;;;;27.03;40.63;101630.69;5073830;27;54585;-58
2023/06/24 21:34:04;;;;;;;;;0.00;0.00;;;;;26.99;40.29;101634.78;5071616;27;60415;-58
2023/06/24 21:36:29;;;;;;;;;0.00;0.00;;;;;26.95;40.25;101632.53;5078144;27;60736;-59
2023/06/24 21:38:54;;;;;;;;;0.00;0.00;;;;;26.85;40.32;101638.16;5076308;27;64021;-57
2023/06/24 21:41:20;;;;;;;;;0.00;0.00;;;;;26.83;40.67;101630.13;5082736;27;64884;-57
2023/06/24 21:43:45;;;;;;;;;0.00;0.00;;;;;26.79;40.87;101623.28;5094053;27;45760;-57
2023/06/24 21:46:10;;;;;;;;;0.00;0.00;;;;;26.80;41.19;101624.97;5075707;27;46137;-57
2023/06/24 21:48:36;;;;;;;;;0.00;0.00;;;;;26.82;41.26;101622.13;5079963;27;69212;-57
2023/06/24 21:51:02;;;;;;;;;0.00;0.00;;;;;26.81;41.35;101625.84;5074330;27;67771;-57
2023/06/24 21:53:31;;;;;;;;;0.00;0.00;;;;;26.77;40.73;101614.41;5077872;27;45599;-64
2023/06/24 21:55:57;;;;;;;;;0.00;0.00;;;;;26.74;41.16;101612.03;5084892;27;46556;-64
2023/06/24 21:58:22;;;;;;;;;0.00;0.00;;;;;26.74;40.82;101610.13;5075450;27;45428;-63
2023/06/24 22:00:47;;;;;;;;;0.00;0.00;;;;;26.71;41.41;101604.97;5085050;27;64598;-63
2023/06/24 22:03:13;;;;;;;;;0.00;0.00;;;;;26.72;41.57;101600.41;5083783;27;45461;-62
2023/06/24 22:05:38;;;;;;;;;0.00;0.00;;;;;26.74;41.33;101609.28;5101746;27;48091;-64
2023/06/24 22:08:03;;;;;;;;;0.00;0.00;;;;;26.75;41.05;101605.50;5069462;28;67403;-63
2023/06/24 22:10:29;;;;;;;;;0.00;0.00;;;;;26.77;41.93;101608.09;5076832;27;45326;-63
2023/06/24 22:12:54;;;;;;;;;0.00;0.00;;;;;26.76;41.55;101604.50;5093119;27;55956;-66
2023/06/24 22:15:20;;;;;;;;;0.00;0.00;;;;;26.77;41.46;101605.38;5079187;27;46074;-57
2023/06/24 22:17:45;;;;;;;;;0.00;0.00;;;;;26.75;41.37;101600.06;5080251;27;45722;-57
2023/06/24 22:20:11;;;;;;;;;0.00;0.00;;;;;26.76;41.32;101598.22;5078984;27;62604;-54
2023/06/24 22:22:41;;;;;;;;;0.00;0.00;;;;;26.74;41.46;101595.66;5079800;27;45564;-55
2023/06/24 22:25:07;;;;;;;;;0.00;0.00;;;;;26.73;41.32;101602.13;5079801;27;46937;-55
2023/06/24 22:27:33;;;;;;;;;0.75;0.75;;;;;26.73;41.84;101613.03;5085628;27;45413;-54
2023/06/24 22:29:58;;;;;;;;;0.00;0.00;;;;;26.70;41.79;101610.56;5084472;27;63266;-55
2023/06/24 22:32:23;;;;;;;;;0.00;0.00;;;;;26.67;41.33;101616.38;5080185;27;46738;-53
2023/06/24 22:34:49;;;;;;;;;0.00;0.00;;;;;26.66;42.06;101611.94;5079219;27;56562;-50
2023/06/24 22:37:14;;;;;;;;;0.00;0.00;;;;;26.66;41.95;101611.94;5078796;27;54849;-53
2023/06/24 22:39:39;;;;;;;;;0.00;0.00;;;;;26.65;42.16;101605.63;5077579;28;65971;-54
2023/06/24 22:42:05;;;;;;;;;0.00;0.00;;;;;26.63;41.17;101604.06;5079343;27;46283;-57
2023/06/24 22:44:30;;;;;;;;;0.00;0.00;;;;;26.61;42.12;101600.66;5082475;27;45714;-55
2023/06/24 22:46:57;;;;;;;;;0.00;0.00;;;;;26.58;41.99;101604.56;5091206;27;45624;-55
2023/06/24 22:49:23;;;;;;;;;0.00;0.00;;;;;26.57;41.84;101600.16;5081378;27;45551;-57
2023/06/24 22:51:48;;;;;;;;;0.00;0.00;;;;;26.53;42.43;101591.44;5078514;27;45616;-57
2023/06/24 22:54:13;;;;;;;;;0.00;0.00;;;;;26.48;41.56;101593.78;5073093;27;62484;-58
2023/06/24 22:56:39;;;;;;;;;0.00;0.00;;;;;26.44;41.94;101588.81;5087326;27;45798;-58
2023/06/24 22:59:04;;;;;;;;;0.00;0.00;;;;;26.40;42.05;101594.59;5085411;27;65680;-58
2023/06/24 23:01:30;;;;;;;;;0.25;0.25;;;;;26.41;41.47;101587.25;5070984;27;68087;-59
2023/06/24 23:03:55;;;;;;;;;0.00;0.00;;;;;26.38;41.79;101601.22;5077619;27;45597;-58
2023/06/24 23:06:21;;;;;;;;;0.00;0.00;;;;;26.36;42.38;101595.94;5077032;27;45802;-58
2023/06/24 23:08:46;;;;;;;;;0.00;0.00;;;;;26.30;42.63;101591.13;5079784;27;45414;-58
2023/06/24 23:11:12;;;;;;;;;0.00;0.00;;;;;26.32;42.21;101596.41;5076405;27;45549;-58
2023/06/24 23:13:38;;;;;;;;;0.00;0.00;;;;;26.32;41.99;101586.38;5077992;28;46510;-58
2023/06/24 23:16:04;;;;;;;;;0.00;0.00;;;;;26.33;42.42;101593.50;5075376;27;64745;-58
2023/06/24 23:18:30;;;;;;;;;0.00;0.00;;;;;26.29;41.91;101578.50;5078012;28;45502;-58